sensor_id;sensor_type;location;lat;lon;timestamp;P1;durP1;ratioP1;P2;durP2;ratioP2
4268;SDS011;2148;48.554;7.834;2023-05-07T00:00:20;6.23;;;5.57;;
4268;SDS011;2148;48.554;7.834;2023-05-07T00:02:45;6.77;;;4.93;;
4268;SDS011;2148;48.554;7.834;2023-05-07T00:05:11;5.43;;;4.93;;
4268;SDS011;2148;48.554;7.834;2023-05-07T00:07:36;6.70;;;5.83;;
4268;SDS011;2148;48.554;7.834;2023-05-07T00:10:02;6.40;;;5.30;;
4268;SDS011;2148;48.554;7.834;2023-05-07T00:12:28;6.17;;;5.57;;
4268;SDS011;2148;48.554;7.834;2023-05-07T00:14:56;5.73;;;5.20;;
4268;SDS011;2148;48.554;7.834;2023-05-07T00:17:21;6.27;;;5.67;;
4268;SDS011;2148;48.554;7.834;2023-05-07T00:19:47;5.73;;;5.20;;
4268;SDS011;2148;48.554;7.834;2023-05-07T00:22:12;5.80;;;5.30;;
4268;SDS011;2148;48.554;7.834;2023-05-07T00:24:37;5.87;;;5.30;;
4268;SDS011;2148;48.554;7.834;2023-05-07T00:27:03;5.27;;;4.70;;
4268;SDS011;2148;48.554;7.834;2023-05-07T00:29:28;7.57;;;5.17;;
4268;SDS011;2148;48.554;7.834;2023-05-07T00:31:53;5.67;;;5.17;;
4268;SDS011;2148;48.554;7.834;2023-05-07T00:34:19;5.30;;;4.90;;
4268;SDS011;2148;48.554;7.834;2023-05-07T00:36:45;5.57;;;5.07;;
4268;SDS011;2148;48.554;7.834;2023-05-07T00:39:10;5.53;;;5.03;;
4268;SDS011;2148;48.554;7.834;2023-05-07T00:41:36;6.17;;;5.57;;
4268;SDS011;2148;48.554;7.834;2023-05-07T00:44:01;6.83;;;5.73;;
4268;SDS011;2148;48.554;7.834;2023-05-07T00:46:27;6.20;;;5.10;;
4268;SDS011;2148;48.554;7.834;2023-05-07T00:48:53;5.50;;;5.10;;
4268;SDS011;2148;48.554;7.834;2023-05-07T00:51:18;7.17;;;5.60;;
4268;SDS011;2148;48.554;7.834;2023-05-07T00:53:44;6.20;;;5.70;;
4268;SDS011;2148;48.554;7.834;2023-05-07T00:56:10;5.90;;;5.40;;
4268;SDS011;2148;48.554;7.834;2023-05-07T00:58:36;6.37;;;5.87;;
4268;SDS011;2148;48.554;7.834;2023-05-07T01:01:01;6.90;;;6.30;;
4268;SDS011;2148;48.554;7.834;2023-05-07T01:03:27;6.17;;;5.67;;
4268;SDS011;2148;48.554;7.834;2023-05-07T01:05:52;5.63;;;5.13;;
4268;SDS011;2148;48.554;7.834;2023-05-07T01:08:18;6.77;;;5.47;;
4268;SDS011;2148;48.554;7.834;2023-05-07T01:10:44;5.93;;;5.10;;
4268;SDS011;2148;48.554;7.834;2023-05-07T01:13:10;5.90;;;5.40;;
4268;SDS011;2148;48.554;7.834;2023-05-07T01:15:36;5.80;;;5.30;;
4268;SDS011;2148;48.554;7.834;2023-05-07T01:18:01;5.37;;;4.87;;
4268;SDS011;2148;48.554;7.834;2023-05-07T01:20:27;6.00;;;5.50;;
4268;SDS011;2148;48.554;7.834;2023-05-07T01:22:53;6.30;;;5.70;;
4268;SDS011;2148;48.554;7.834;2023-05-07T01:25:18;6.93;;;5.87;;
4268;SDS011;2148;48.554;7.834;2023-05-07T01:27:44;5.80;;;5.30;;
4268;SDS011;2148;48.554;7.834;2023-05-07T01:30:09;5.80;;;5.30;;
4268;SDS011;2148;48.554;7.834;2023-05-07T01:35:35;5.90;;;5.40;;
4268;SDS011;2148;48.554;7.834;2023-05-07T01:38:02;5.77;;;5.20;;
4268;SDS011;2148;48.554;7.834;2023-05-07T01:40:29;6.03;;;5.53;;
4268;SDS011;2148;48.554;7.834;2023-05-07T01:42:55;5.93;;;5.43;;
4268;SDS011;2148;48.554;7.834;2023-05-07T01:45:20;6.83;;;5.43;;
4268;SDS011;2148;48.554;7.834;2023-05-07T01:47:45;5.50;;;4.87;;
4268;SDS011;2148;48.554;7.834;2023-05-07T01:50:11;5.53;;;5.00;;
4268;SDS011;2148;48.554;7.834;2023-05-07T01:52:37;7.53;;;5.43;;
4268;SDS011;2148;48.554;7.834;2023-05-07T01:55:03;5.63;;;5.00;;
4268;SDS011;2148;48.554;7.834;2023-05-07T01:57:29;5.57;;;5.07;;
4268;SDS011;2148;48.554;7.834;2023-05-07T01:59:55;5.83;;;5.33;;
4268;SDS011;2148;48.554;7.834;2023-05-07T02:02:20;5.60;;;4.97;;
4268;SDS011;2148;48.554;7.834;2023-05-07T02:04:45;5.03;;;4.63;;
4268;SDS011;2148;48.554;7.834;2023-05-07T02:07:11;5.67;;;5.10;;
4268;SDS011;2148;48.554;7.834;2023-05-07T02:09:36;5.60;;;5.10;;
4268;SDS011;2148;48.554;7.834;2023-05-07T02:12:01;5.90;;;5.33;;
4268;SDS011;2148;48.554;7.834;2023-05-07T02:14:27;5.50;;;5.00;;
4268;SDS011;2148;48.554;7.834;2023-05-07T02:16:52;5.80;;;5.30;;
4268;SDS011;2148;48.554;7.834;2023-05-07T02:19:17;5.50;;;5.00;;
4268;SDS011;2148;48.554;7.834;2023-05-07T02:21:43;5.70;;;5.10;;
4268;SDS011;2148;48.554;7.834;2023-05-07T02:24:08;5.37;;;4.87;;
4268;SDS011;2148;48.554;7.834;2023-05-07T02:26:33;5.47;;;4.97;;
4268;SDS011;2148;48.554;7.834;2023-05-07T02:28:59;7.83;;;5.00;;
4268;SDS011;2148;48.554;7.834;2023-05-07T02:31:24;5.23;;;4.73;;
4268;SDS011;2148;48.554;7.834;2023-05-07T02:33:50;5.40;;;4.90;;
4268;SDS011;2148;48.554;7.834;2023-05-07T02:36:15;6.43;;;5.17;;
4268;SDS011;2148;48.554;7.834;2023-05-07T02:38:40;5.67;;;4.97;;
4268;SDS011;2148;48.554;7.834;2023-05-07T02:41:05;5.40;;;4.90;;
4268;SDS011;2148;48.554;7.834;2023-05-07T02:43:31;5.83;;;5.27;;
4268;SDS011;2148;48.554;7.834;2023-05-07T02:46:03;5.80;;;4.53;;
4268;SDS011;2148;48.554;7.834;2023-05-07T02:48:29;5.57;;;5.07;;
4268;SDS011;2148;48.554;7.834;2023-05-07T02:50:54;5.50;;;5.00;;
4268;SDS011;2148;48.554;7.834;2023-05-07T02:53:20;6.57;;;5.27;;
4268;SDS011;2148;48.554;7.834;2023-05-07T02:55:45;5.63;;;5.13;;
4268;SDS011;2148;48.554;7.834;2023-05-07T02:58:11;5.20;;;4.60;;
4268;SDS011;2148;48.554;7.834;2023-05-07T03:00:36;5.73;;;5.23;;
4268;SDS011;2148;48.554;7.834;2023-05-07T03:03:01;5.57;;;4.67;;
4268;SDS011;2148;48.554;7.834;2023-05-07T03:05:27;5.27;;;4.83;;
4268;SDS011;2148;48.554;7.834;2023-05-07T03:07:52;5.10;;;4.70;;
4268;SDS011;2148;48.554;7.834;2023-05-07T03:10:17;5.20;;;4.77;;
4268;SDS011;2148;48.554;7.834;2023-05-07T03:12:43;5.60;;;5.10;;
4268;SDS011;2148;48.554;7.834;2023-05-07T03:15:09;5.40;;;5.00;;
4268;SDS011;2148;48.554;7.834;2023-05-07T03:17:35;5.57;;;4.90;;
4268;SDS011;2148;48.554;7.834;2023-05-07T03:20:00;5.40;;;4.90;;
4268;SDS011;2148;48.554;7.834;2023-05-07T03:22:26;5.17;;;4.67;;
4268;SDS011;2148;48.554;7.834;2023-05-07T03:24:51;5.10;;;4.53;;
4268;SDS011;2148;48.554;7.834;2023-05-07T03:27:16;5.77;;;5.20;;
4268;SDS011;2148;48.554;7.834;2023-05-07T03:29:41;5.13;;;4.73;;
4268;SDS011;2148;48.554;7.834;2023-05-07T03:32:07;5.87;;;4.80;;
4268;SDS011;2148;48.554;7.834;2023-05-07T03:34:32;4.70;;;4.30;;
4268;SDS011;2148;48.554;7.834;2023-05-07T03:36:57;4.63;;;4.30;;
4268;SDS011;2148;48.554;7.834;2023-05-07T03:39:23;5.13;;;4.63;;
4268;SDS011;2148;48.554;7.834;2023-05-07T03:41:48;5.07;;;4.57;;
4268;SDS011;2148;48.554;7.834;2023-05-07T03:44:13;5.07;;;4.60;;
4268;SDS011;2148;48.554;7.834;2023-05-07T03:46:38;4.60;;;4.20;;
4268;SDS011;2148;48.554;7.834;2023-05-07T03:49:04;4.60;;;4.20;;
4268;SDS011;2148;48.554;7.834;2023-05-07T03:51:29;5.07;;;4.57;;
4268;SDS011;2148;48.554;7.834;2023-05-07T03:53:55;5.00;;;4.70;;
4268;SDS011;2148;48.554;7.834;2023-05-07T03:56:22;4.83;;;4.30;;
4268;SDS011;2148;48.554;7.834;2023-05-07T03:58:47;5.37;;;4.33;;
4268;SDS011;2148;48.554;7.834;2023-05-07T04:01:13;5.23;;;4.73;;
4268;SDS011;2148;48.554;7.834;2023-05-07T04:03:38;12.40;;;9.03;;
4268;SDS011;2148;48.554;7.834;2023-05-07T04:06:03;13.30;;;9.97;;
4268;SDS011;2148;48.554;7.834;2023-05-07T04:08:29;11.53;;;8.53;;
4268;SDS011;2148;48.554;7.834;2023-05-07T04:10:57;6.50;;;5.90;;
4268;SDS011;2148;48.554;7.834;2023-05-07T04:13:23;6.87;;;6.17;;
4268;SDS011;2148;48.554;7.834;2023-05-07T04:15:49;6.67;;;6.07;;
4268;SDS011;2148;48.554;7.834;2023-05-07T04:18:14;7.03;;;6.03;;
4268;SDS011;2148;48.554;7.834;2023-05-07T04:20:40;7.43;;;6.73;;
4268;SDS011;2148;48.554;7.834;2023-05-07T04:23:05;8.13;;;6.80;;
4268;SDS011;2148;48.554;7.834;2023-05-07T04:25:31;8.00;;;6.77;;
4268;SDS011;2148;48.554;7.834;2023-05-07T04:27:56;6.90;;;6.17;;
4268;SDS011;2148;48.554;7.834;2023-05-07T04:30:21;6.80;;;6.07;;
4268;SDS011;2148;48.554;7.834;2023-05-07T04:32:47;6.30;;;5.80;;
4268;SDS011;2148;48.554;7.834;2023-05-07T04:35:13;5.87;;;5.37;;
4268;SDS011;2148;48.554;7.834;2023-05-07T04:37:38;6.33;;;5.70;;
4268;SDS011;2148;48.554;7.834;2023-05-07T04:40:03;8.20;;;7.50;;
4268;SDS011;2148;48.554;7.834;2023-05-07T04:42:29;6.93;;;6.07;;
4268;SDS011;2148;48.554;7.834;2023-05-07T04:44:54;6.27;;;5.77;;
4268;SDS011;2148;48.554;7.834;2023-05-07T04:47:20;6.63;;;6.03;;
4268;SDS011;2148;48.554;7.834;2023-05-07T04:49:45;6.17;;;5.57;;
4268;SDS011;2148;48.554;7.834;2023-05-07T04:52:11;6.67;;;6.07;;
4268;SDS011;2148;48.554;7.834;2023-05-07T04:54:36;6.40;;;5.80;;
4268;SDS011;2148;48.554;7.834;2023-05-07T04:57:03;6.30;;;5.70;;
4268;SDS011;2148;48.554;7.834;2023-05-07T04:59:29;5.67;;;5.00;;
4268;SDS011;2148;48.554;7.834;2023-05-07T05:01:54;4.93;;;4.53;;
4268;SDS011;2148;48.554;7.834;2023-05-07T05:04:20;4.03;;;3.73;;
4268;SDS011;2148;48.554;7.834;2023-05-07T05:06:45;5.97;;;4.73;;
4268;SDS011;2148;48.554;7.834;2023-05-07T05:09:10;4.30;;;3.90;;
4268;SDS011;2148;48.554;7.834;2023-05-07T05:11:36;4.30;;;3.83;;
4268;SDS011;2148;48.554;7.834;2023-05-07T05:14:01;3.80;;;3.50;;
4268;SDS011;2148;48.554;7.834;2023-05-07T05:16:26;4.57;;;3.77;;
4268;SDS011;2148;48.554;7.834;2023-05-07T05:18:52;3.67;;;3.37;;
4268;SDS011;2148;48.554;7.834;2023-05-07T05:21:19;3.87;;;3.57;;
4268;SDS011;2148;48.554;7.834;2023-05-07T05:23:44;6.07;;;3.90;;
4268;SDS011;2148;48.554;7.834;2023-05-07T05:26:09;4.07;;;3.77;;
4268;SDS011;2148;48.554;7.834;2023-05-07T05:28:35;4.43;;;4.10;;
4268;SDS011;2148;48.554;7.834;2023-05-07T05:31:00;4.00;;;3.60;;
4268;SDS011;2148;48.554;7.834;2023-05-07T05:33:25;4.40;;;4.10;;
4268;SDS011;2148;48.554;7.834;2023-05-07T05:35:51;6.27;;;3.87;;
4268;SDS011;2148;48.554;7.834;2023-05-07T05:38:16;8.20;;;4.40;;
4268;SDS011;2148;48.554;7.834;2023-05-07T05:40:41;6.43;;;3.60;;
4268;SDS011;2148;48.554;7.834;2023-05-07T05:43:06;4.43;;;3.97;;
4268;SDS011;2148;48.554;7.834;2023-05-07T05:45:32;4.80;;;4.30;;
4268;SDS011;2148;48.554;7.834;2023-05-07T05:47:57;4.80;;;4.40;;
4268;SDS011;2148;48.554;7.834;2023-05-07T05:50:22;5.40;;;4.53;;
4268;SDS011;2148;48.554;7.834;2023-05-07T05:52:48;5.33;;;4.27;;
4268;SDS011;2148;48.554;7.834;2023-05-07T05:55:13;4.77;;;4.37;;
4268;SDS011;2148;48.554;7.834;2023-05-07T05:57:39;9.47;;;4.63;;
4268;SDS011;2148;48.554;7.834;2023-05-07T06:00:05;5.70;;;4.73;;
4268;SDS011;2148;48.554;7.834;2023-05-07T06:02:31;5.20;;;4.80;;
4268;SDS011;2148;48.554;7.834;2023-05-07T06:04:56;6.97;;;4.70;;
4268;SDS011;2148;48.554;7.834;2023-05-07T06:07:21;4.80;;;4.40;;
4268;SDS011;2148;48.554;7.834;2023-05-07T06:09:47;5.43;;;4.93;;
4268;SDS011;2148;48.554;7.834;2023-05-07T06:12:12;5.77;;;5.00;;
4268;SDS011;2148;48.554;7.834;2023-05-07T06:14:37;7.27;;;5.30;;
4268;SDS011;2148;48.554;7.834;2023-05-07T06:17:03;6.00;;;5.47;;
4268;SDS011;2148;48.554;7.834;2023-05-07T06:19:28;5.57;;;4.87;;
4268;SDS011;2148;48.554;7.834;2023-05-07T06:21:53;5.93;;;5.37;;
4268;SDS011;2148;48.554;7.834;2023-05-07T06:24:19;5.87;;;5.40;;
4268;SDS011;2148;48.554;7.834;2023-05-07T06:26:44;6.50;;;5.50;;
4268;SDS011;2148;48.554;7.834;2023-05-07T06:29:09;6.03;;;5.53;;
4268;SDS011;2148;48.554;7.834;2023-05-07T06:31:35;5.60;;;5.07;;
4268;SDS011;2148;48.554;7.834;2023-05-07T06:34:00;5.70;;;5.10;;
4268;SDS011;2148;48.554;7.834;2023-05-07T06:36:27;7.40;;;5.07;;
4268;SDS011;2148;48.554;7.834;2023-05-07T06:38:52;6.00;;;5.50;;
4268;SDS011;2148;48.554;7.834;2023-05-07T06:41:19;6.20;;;5.60;;
4268;SDS011;2148;48.554;7.834;2023-05-07T06:43:45;6.27;;;5.77;;
4268;SDS011;2148;48.554;7.834;2023-05-07T06:46:10;6.10;;;5.47;;
4268;SDS011;2148;48.554;7.834;2023-05-07T06:48:36;6.33;;;5.77;;
4268;SDS011;2148;48.554;7.834;2023-05-07T06:51:01;6.30;;;5.80;;
4268;SDS011;2148;48.554;7.834;2023-05-07T06:53:26;6.90;;;6.30;;
4268;SDS011;2148;48.554;7.834;2023-05-07T06:55:53;7.10;;;5.83;;
4268;SDS011;2148;48.554;7.834;2023-05-07T06:58:19;6.20;;;5.60;;
4268;SDS011;2148;48.554;7.834;2023-05-07T07:00:44;5.83;;;5.27;;
4268;SDS011;2148;48.554;7.834;2023-05-07T07:03:10;6.83;;;6.30;;
4268;SDS011;2148;48.554;7.834;2023-05-07T07:05:36;6.67;;;6.00;;
4268;SDS011;2148;48.554;7.834;2023-05-07T07:08:01;5.50;;;4.97;;
4268;SDS011;2148;48.554;7.834;2023-05-07T07:10:26;7.67;;;6.63;;
4268;SDS011;2148;48.554;7.834;2023-05-07T07:12:51;8.77;;;6.23;;
4268;SDS011;2148;48.554;7.834;2023-05-07T07:15:17;6.83;;;6.23;;
4268;SDS011;2148;48.554;7.834;2023-05-07T07:17:43;6.70;;;6.10;;
4268;SDS011;2148;48.554;7.834;2023-05-07T07:20:08;10.23;;;6.30;;
4268;SDS011;2148;48.554;7.834;2023-05-07T07:22:34;6.90;;;6.30;;
4268;SDS011;2148;48.554;7.834;2023-05-07T07:24:59;6.60;;;5.57;;
4268;SDS011;2148;48.554;7.834;2023-05-07T07:27:25;6.53;;;5.93;;
4268;SDS011;2148;48.554;7.834;2023-05-07T07:29:50;6.67;;;6.17;;
4268;SDS011;2148;48.554;7.834;2023-05-07T07:32:15;6.37;;;5.77;;
4268;SDS011;2148;48.554;7.834;2023-05-07T07:34:40;7.60;;;6.90;;
4268;SDS011;2148;48.554;7.834;2023-05-07T07:37:06;7.27;;;6.57;;
4268;SDS011;2148;48.554;7.834;2023-05-07T07:39:32;8.37;;;6.70;;
4268;SDS011;2148;48.554;7.834;2023-05-07T07:41:57;7.50;;;6.80;;
4268;SDS011;2148;48.554;7.834;2023-05-07T07:44:22;6.43;;;5.83;;
4268;SDS011;2148;48.554;7.834;2023-05-07T07:46:48;7.60;;;7.00;;
4268;SDS011;2148;48.554;7.834;2023-05-07T07:49:13;8.17;;;7.37;;
4268;SDS011;2148;48.554;7.834;2023-05-07T07:51:39;8.70;;;7.80;;
4268;SDS011;2148;48.554;7.834;2023-05-07T07:54:04;8.77;;;8.03;;
4268;SDS011;2148;48.554;7.834;2023-05-07T07:56:29;7.50;;;6.80;;
4268;SDS011;2148;48.554;7.834;2023-05-07T07:58:55;7.83;;;7.13;;
4268;SDS011;2148;48.554;7.834;2023-05-07T08:01:20;8.63;;;7.80;;
4268;SDS011;2148;48.554;7.834;2023-05-07T08:03:45;8.53;;;7.53;;
4268;SDS011;2148;48.554;7.834;2023-05-07T08:06:10;8.43;;;7.63;;
4268;SDS011;2148;48.554;7.834;2023-05-07T08:08:36;8.50;;;7.70;;
4268;SDS011;2148;48.554;7.834;2023-05-07T08:11:01;8.97;;;7.40;;
4268;SDS011;2148;48.554;7.834;2023-05-07T08:13:26;9.30;;;8.50;;
4268;SDS011;2148;48.554;7.834;2023-05-07T08:15:51;8.70;;;7.87;;
4268;SDS011;2148;48.554;7.834;2023-05-07T08:18:17;7.83;;;7.13;;
4268;SDS011;2148;48.554;7.834;2023-05-07T08:20:43;8.93;;;8.00;;
4268;SDS011;2148;48.554;7.834;2023-05-07T08:23:08;9.13;;;8.23;;
4268;SDS011;2148;48.554;7.834;2023-05-07T08:25:33;8.93;;;8.03;;
4268;SDS011;2148;48.554;7.834;2023-05-07T08:27:59;9.20;;;8.30;;
4268;SDS011;2148;48.554;7.834;2023-05-07T08:30:24;9.07;;;8.23;;
4268;SDS011;2148;48.554;7.834;2023-05-07T08:32:50;8.33;;;7.53;;
4268;SDS011;2148;48.554;7.834;2023-05-07T08:35:15;7.93;;;6.77;;
4268;SDS011;2148;48.554;7.834;2023-05-07T08:37:40;8.17;;;7.47;;
4268;SDS011;2148;48.554;7.834;2023-05-07T08:40:06;8.97;;;8.17;;
4268;SDS011;2148;48.554;7.834;2023-05-07T08:42:32;8.33;;;7.60;;
4268;SDS011;2148;48.554;7.834;2023-05-07T08:45:00;8.83;;;7.80;;
4268;SDS011;2148;48.554;7.834;2023-05-07T08:47:33;7.70;;;7.00;;
4268;SDS011;2148;48.554;7.834;2023-05-07T08:50:00;8.53;;;7.73;;
4268;SDS011;2148;48.554;7.834;2023-05-07T08:52:27;8.10;;;7.40;;
4268;SDS011;2148;48.554;7.834;2023-05-07T08:54:52;7.80;;;7.00;;
4268;SDS011;2148;48.554;7.834;2023-05-07T08:57:17;9.53;;;6.87;;
4268;SDS011;2148;48.554;7.834;2023-05-07T08:59:44;8.70;;;7.80;;
4268;SDS011;2148;48.554;7.834;2023-05-07T09:02:10;7.80;;;7.10;;
4268;SDS011;2148;48.554;7.834;2023-05-07T09:04:36;8.33;;;7.53;;
4268;SDS011;2148;48.554;7.834;2023-05-07T09:07:01;7.50;;;6.67;;
4268;SDS011;2148;48.554;7.834;2023-05-07T09:09:30;6.23;;;5.60;;
4268;SDS011;2148;48.554;7.834;2023-05-07T09:11:57;8.07;;;7.33;;
4268;SDS011;2148;48.554;7.834;2023-05-07T09:14:25;8.17;;;6.90;;
4268;SDS011;2148;48.554;7.834;2023-05-07T09:16:54;7.67;;;6.97;;
4268;SDS011;2148;48.554;7.834;2023-05-07T09:19:23;7.00;;;6.40;;
4268;SDS011;2148;48.554;7.834;2023-05-07T09:21:49;8.00;;;7.20;;
4268;SDS011;2148;48.554;7.834;2023-05-07T09:24:15;8.73;;;7.80;;
4268;SDS011;2148;48.554;7.834;2023-05-07T09:26:40;8.10;;;7.17;;
4268;SDS011;2148;48.554;7.834;2023-05-07T09:29:06;7.33;;;6.63;;
4268;SDS011;2148;48.554;7.834;2023-05-07T09:31:35;7.07;;;6.47;;
4268;SDS011;2148;48.554;7.834;2023-05-07T09:34:01;9.43;;;6.30;;
4268;SDS011;2148;48.554;7.834;2023-05-07T09:36:26;8.53;;;7.37;;
4268;SDS011;2148;48.554;7.834;2023-05-07T09:38:52;7.67;;;6.97;;
4268;SDS011;2148;48.554;7.834;2023-05-07T09:41:17;7.70;;;7.00;;
4268;SDS011;2148;48.554;7.834;2023-05-07T09:43:43;7.37;;;6.67;;
4268;SDS011;2148;48.554;7.834;2023-05-07T09:46:11;8.47;;;7.30;;
4268;SDS011;2148;48.554;7.834;2023-05-07T09:48:38;13.50;;;7.57;;
4268;SDS011;2148;48.554;7.834;2023-05-07T09:51:28;6.60;;;5.90;;
4268;SDS011;2148;48.554;7.834;2023-05-07T09:53:54;7.50;;;6.80;;
4268;SDS011;2148;48.554;7.834;2023-05-07T09:56:21;7.60;;;6.90;;
4268;SDS011;2148;48.554;7.834;2023-05-07T09:58:48;7.53;;;6.83;;
4268;SDS011;2148;48.554;7.834;2023-05-07T10:01:13;8.80;;;7.77;;
4268;SDS011;2148;48.554;7.834;2023-05-07T10:03:42;8.97;;;7.33;;
4268;SDS011;2148;48.554;7.834;2023-05-07T10:06:08;6.90;;;6.20;;
4268;SDS011;2148;48.554;7.834;2023-05-07T10:08:35;6.67;;;6.07;;
4268;SDS011;2148;48.554;7.834;2023-05-07T10:11:01;5.93;;;5.33;;
4268;SDS011;2148;48.554;7.834;2023-05-07T10:13:28;5.60;;;5.10;;
4268;SDS011;2148;48.554;7.834;2023-05-07T10:15:54;7.70;;;6.00;;
4268;SDS011;2148;48.554;7.834;2023-05-07T10:18:20;6.03;;;5.43;;
4268;SDS011;2148;48.554;7.834;2023-05-07T10:20:54;6.70;;;6.10;;
4268;SDS011;2148;48.554;7.834;2023-05-07T10:23:21;7.93;;;5.40;;
4268;SDS011;2148;48.554;7.834;2023-05-07T10:25:50;8.40;;;6.40;;
4268;SDS011;2148;48.554;7.834;2023-05-07T10:28:15;7.73;;;5.80;;
4268;SDS011;2148;48.554;7.834;2023-05-07T10:33:40;6.27;;;5.77;;
4268;SDS011;2148;48.554;7.834;2023-05-07T10:36:07;5.77;;;5.17;;
4268;SDS011;2148;48.554;7.834;2023-05-07T10:38:32;6.70;;;6.10;;
4268;SDS011;2148;48.554;7.834;2023-05-07T10:40:58;6.13;;;5.63;;
4268;SDS011;2148;48.554;7.834;2023-05-07T10:43:23;8.57;;;6.47;;
4268;SDS011;2148;48.554;7.834;2023-05-07T10:51:28;8.73;;;7.83;;
4268;SDS011;2148;48.554;7.834;2023-05-07T10:56:40;7.90;;;7.03;;
4268;SDS011;2148;48.554;7.834;2023-05-07T11:01:55;7.80;;;7.03;;
4268;SDS011;2148;48.554;7.834;2023-05-07T11:04:27;7.80;;;7.10;;
4268;SDS011;2148;48.554;7.834;2023-05-07T11:09:54;8.97;;;6.97;;
4268;SDS011;2148;48.554;7.834;2023-05-07T11:15:01;7.17;;;5.97;;
4268;SDS011;2148;48.554;7.834;2023-05-07T11:17:29;8.60;;;6.73;;
4268;SDS011;2148;48.554;7.834;2023-05-07T11:19:57;7.07;;;6.00;;
4268;SDS011;2148;48.554;7.834;2023-05-07T11:24:59;6.10;;;5.50;;
4268;SDS011;2148;48.554;7.834;2023-05-07T11:27:25;6.07;;;5.47;;
4268;SDS011;2148;48.554;7.834;2023-05-07T11:29:51;6.80;;;6.20;;
4268;SDS011;2148;48.554;7.834;2023-05-07T11:32:22;6.93;;;6.00;;
4268;SDS011;2148;48.554;7.834;2023-05-07T11:34:51;6.17;;;5.63;;
4268;SDS011;2148;48.554;7.834;2023-05-07T11:37:18;5.60;;;5.10;;
4268;SDS011;2148;48.554;7.834;2023-05-07T11:39:44;6.43;;;5.20;;
4268;SDS011;2148;48.554;7.834;2023-05-07T11:42:25;7.00;;;6.40;;
4268;SDS011;2148;48.554;7.834;2023-05-07T11:44:52;6.83;;;6.07;;
4268;SDS011;2148;48.554;7.834;2023-05-07T11:47:18;6.77;;;6.17;;
4268;SDS011;2148;48.554;7.834;2023-05-07T11:49:46;6.00;;;4.80;;
4268;SDS011;2148;48.554;7.834;2023-05-07T11:52:15;6.93;;;5.40;;
4268;SDS011;2148;48.554;7.834;2023-05-07T11:54:41;6.37;;;4.67;;
4268;SDS011;2148;48.554;7.834;2023-05-07T11:57:06;5.07;;;4.60;;
4268;SDS011;2148;48.554;7.834;2023-05-07T11:59:39;6.03;;;5.50;;
4268;SDS011;2148;48.554;7.834;2023-05-07T12:02:05;6.03;;;5.43;;
4268;SDS011;2148;48.554;7.834;2023-05-07T12:04:31;5.50;;;5.00;;
4268;SDS011;2148;48.554;7.834;2023-05-07T12:06:56;5.23;;;4.77;;
4268;SDS011;2148;48.554;7.834;2023-05-07T12:09:21;6.17;;;5.23;;
4268;SDS011;2148;48.554;7.834;2023-05-07T12:11:47;6.30;;;5.70;;
4268;SDS011;2148;48.554;7.834;2023-05-07T12:14:12;5.73;;;4.73;;
4268;SDS011;2148;48.554;7.834;2023-05-07T12:16:38;6.37;;;5.73;;
4268;SDS011;2148;48.554;7.834;2023-05-07T12:19:05;6.87;;;6.17;;
4268;SDS011;2148;48.554;7.834;2023-05-07T12:21:33;7.13;;;6.23;;
4268;SDS011;2148;48.554;7.834;2023-05-07T12:23:58;6.50;;;5.63;;
4268;SDS011;2148;48.554;7.834;2023-05-07T12:26:23;6.70;;;5.50;;
4268;SDS011;2148;48.554;7.834;2023-05-07T12:28:49;5.37;;;4.83;;
4268;SDS011;2148;48.554;7.834;2023-05-07T12:31:14;7.33;;;5.13;;
4268;SDS011;2148;48.554;7.834;2023-05-07T12:33:40;5.47;;;4.80;;
4268;SDS011;2148;48.554;7.834;2023-05-07T12:36:06;7.47;;;5.00;;
4268;SDS011;2148;48.554;7.834;2023-05-07T12:38:34;5.33;;;4.83;;
4268;SDS011;2148;48.554;7.834;2023-05-07T12:41:00;5.77;;;5.27;;
4268;SDS011;2148;48.554;7.834;2023-05-07T12:43:27;5.40;;;4.90;;
4268;SDS011;2148;48.554;7.834;2023-05-07T12:45:57;5.60;;;5.10;;
4268;SDS011;2148;48.554;7.834;2023-05-07T12:48:24;5.83;;;5.23;;
4268;SDS011;2148;48.554;7.834;2023-05-07T12:50:55;5.37;;;4.70;;
4268;SDS011;2148;48.554;7.834;2023-05-07T12:53:22;5.93;;;5.33;;
4268;SDS011;2148;48.554;7.834;2023-05-07T12:55:50;6.57;;;4.60;;
4268;SDS011;2148;48.554;7.834;2023-05-07T12:58:17;5.03;;;4.63;;
4268;SDS011;2148;48.554;7.834;2023-05-07T13:00:44;5.97;;;4.70;;
4268;SDS011;2148;48.554;7.834;2023-05-07T13:03:09;6.13;;;4.33;;
4268;SDS011;2148;48.554;7.834;2023-05-07T13:05:35;4.73;;;4.20;;
4268;SDS011;2148;48.554;7.834;2023-05-07T13:08:01;6.83;;;4.17;;
4268;SDS011;2148;48.554;7.834;2023-05-07T13:10:26;6.03;;;4.10;;
4268;SDS011;2148;48.554;7.834;2023-05-07T13:12:52;5.27;;;4.13;;
4268;SDS011;2148;48.554;7.834;2023-05-07T13:15:17;4.30;;;3.73;;
4268;SDS011;2148;48.554;7.834;2023-05-07T13:17:42;7.10;;;3.60;;
4268;SDS011;2148;48.554;7.834;2023-05-07T13:20:11;4.17;;;3.73;;
4268;SDS011;2148;48.554;7.834;2023-05-07T13:22:37;3.83;;;3.53;;
4268;SDS011;2148;48.554;7.834;2023-05-07T13:25:03;4.37;;;3.83;;
4268;SDS011;2148;48.554;7.834;2023-05-07T13:27:29;3.73;;;3.43;;
4268;SDS011;2148;48.554;7.834;2023-05-07T13:29:55;4.17;;;3.87;;
4268;SDS011;2148;48.554;7.834;2023-05-07T13:32:21;4.53;;;3.83;;
4268;SDS011;2148;48.554;7.834;2023-05-07T13:34:46;4.20;;;3.67;;
4268;SDS011;2148;48.554;7.834;2023-05-07T13:37:11;4.53;;;4.10;;
4268;SDS011;2148;48.554;7.834;2023-05-07T13:39:36;4.57;;;4.17;;
4268;SDS011;2148;48.554;7.834;2023-05-07T13:42:02;4.43;;;3.80;;
4268;SDS011;2148;48.554;7.834;2023-05-07T13:44:27;4.77;;;4.30;;
4268;SDS011;2148;48.554;7.834;2023-05-07T13:46:52;4.80;;;3.77;;
4268;SDS011;2148;48.554;7.834;2023-05-07T13:49:17;4.60;;;3.97;;
4268;SDS011;2148;48.554;7.834;2023-05-07T13:51:43;4.50;;;4.10;;
4268;SDS011;2148;48.554;7.834;2023-05-07T13:54:08;4.70;;;3.70;;
4268;SDS011;2148;48.554;7.834;2023-05-07T13:56:33;3.60;;;3.30;;
4268;SDS011;2148;48.554;7.834;2023-05-07T13:58:59;3.97;;;3.30;;
4268;SDS011;2148;48.554;7.834;2023-05-07T14:01:24;4.53;;;3.13;;
4268;SDS011;2148;48.554;7.834;2023-05-07T14:03:49;6.33;;;3.67;;
4268;SDS011;2148;48.554;7.834;2023-05-07T14:06:14;4.13;;;3.43;;
4268;SDS011;2148;48.554;7.834;2023-05-07T14:08:40;3.27;;;2.97;;
4268;SDS011;2148;48.554;7.834;2023-05-07T14:11:05;3.30;;;3.00;;
4268;SDS011;2148;48.554;7.834;2023-05-07T14:13:31;4.43;;;3.40;;
4268;SDS011;2148;48.554;7.834;2023-05-07T14:15:56;4.10;;;3.13;;
4268;SDS011;2148;48.554;7.834;2023-05-07T14:18:22;3.70;;;3.40;;
4268;SDS011;2148;48.554;7.834;2023-05-07T14:20:47;3.80;;;3.37;;
4268;SDS011;2148;48.554;7.834;2023-05-07T14:23:13;3.53;;;3.23;;
4268;SDS011;2148;48.554;7.834;2023-05-07T14:25:39;3.63;;;3.33;;
4268;SDS011;2148;48.554;7.834;2023-05-07T14:28:04;3.33;;;2.83;;
4268;SDS011;2148;48.554;7.834;2023-05-07T14:30:30;4.40;;;3.30;;
4268;SDS011;2148;48.554;7.834;2023-05-07T14:32:55;3.33;;;3.03;;
4268;SDS011;2148;48.554;7.834;2023-05-07T14:35:20;3.73;;;3.43;;
4268;SDS011;2148;48.554;7.834;2023-05-07T14:37:46;3.60;;;3.30;;
4268;SDS011;2148;48.554;7.834;2023-05-07T14:40:11;3.50;;;3.20;;
4268;SDS011;2148;48.554;7.834;2023-05-07T14:42:36;3.57;;;3.20;;
4268;SDS011;2148;48.554;7.834;2023-05-07T14:45:02;5.23;;;3.07;;
4268;SDS011;2148;48.554;7.834;2023-05-07T14:47:27;3.10;;;2.90;;
4268;SDS011;2148;48.554;7.834;2023-05-07T14:49:53;3.20;;;2.90;;
4268;SDS011;2148;48.554;7.834;2023-05-07T14:52:19;3.77;;;3.17;;
4268;SDS011;2148;48.554;7.834;2023-05-07T14:54:44;6.57;;;3.17;;
4268;SDS011;2148;48.554;7.834;2023-05-07T14:57:10;3.60;;;3.30;;
4268;SDS011;2148;48.554;7.834;2023-05-07T14:59:37;3.80;;;3.10;;
4268;SDS011;2148;48.554;7.834;2023-05-07T15:02:03;3.60;;;2.90;;
4268;SDS011;2148;48.554;7.834;2023-05-07T15:04:29;3.20;;;2.90;;
4268;SDS011;2148;48.554;7.834;2023-05-07T15:06:55;3.67;;;3.37;;
4268;SDS011;2148;48.554;7.834;2023-05-07T15:09:21;3.63;;;3.33;;
4268;SDS011;2148;48.554;7.834;2023-05-07T15:11:46;3.60;;;3.30;;
4268;SDS011;2148;48.554;7.834;2023-05-07T15:14:11;2.97;;;2.77;;
4268;SDS011;2148;48.554;7.834;2023-05-07T15:16:36;3.63;;;3.30;;
4268;SDS011;2148;48.554;7.834;2023-05-07T15:19:01;3.00;;;2.70;;
4268;SDS011;2148;48.554;7.834;2023-05-07T15:21:27;3.37;;;2.80;;
4268;SDS011;2148;48.554;7.834;2023-05-07T15:23:52;2.50;;;2.30;;
4268;SDS011;2148;48.554;7.834;2023-05-07T15:26:17;3.07;;;2.87;;
4268;SDS011;2148;48.554;7.834;2023-05-07T15:28:42;3.83;;;2.80;;
4268;SDS011;2148;48.554;7.834;2023-05-07T15:31:08;3.97;;;2.87;;